Terminal Aerodrome Forecast
Issued by NWS

Current Version | Previous Version | Graphics & Text | Print | Product List | Glossary On
Versions: 1 2 3 4 5 6 7 8 9 10 11 12 13 14 15 16 17 18 19 20 21 22 23 24 25 26 27 28 29
000
FTUS41 KILN 292337
TAFLUK
TAF
KLUK 292337Z 3000/3024 34007KT P6SM FEW110 SCT190 OVC250
     FM300200 07009KT P6SM OVC100
     FM301400 06007KT 4SM -SHRA BR OVC025
     FM301600 06009KT 2SM -SHRA BR OVC020
     FM301800 11009G18KT 2SM -SHRA BR OVC015=

USA.gov is the U.S. government's official web portal to all federal, state and local government web resources and services.